PWSweather.com
Personal Weather Stations
Station Observations
KV9EWX
Winnebago, Il, Winnebago, IL 61088

Winnebago, IlWinnebago, IL 61088

Lat: 42.261175, Lon: -89.236369

Elevation: 892

Station Type: Lacrosse ws-2811

Latest ConditionsUpdated 8:17:13 PM CDT Friday, Mar 27, 2015
Currently Today's Max Today's Min Today's Average
Temperature 25.7°F-3.5°C 41.7°F5.4°C 17.8°F-7.9°C 29.1°F-1.6°C
Dew Point 8.6°F-13.0°C 20.8°F-6.2°C 8.6°F-13.0°C 14.0°F-10.0°C
Winds 0.3 mph E0.5 kmh E 17.1 mph NNE27.5 kmh NNE - 6.3 mph 10.1 kmh
Wind Gusts 0.3 mph0.5 kmh 32.5 mph52.3 kmh - -
Humidity 48% 74% 35% 55%
Pressure 29.77 in1008.1 mb 29.80 in1009.1 mb 29.70 in1005.8 mb -
Hour Temp Dew Point Humidity Winds Wind Gusts Pressure Precip Precip Rate Daily Precip Total
08:17 PM 25.7°F-3.5°C 8.6°F-13.0°C 48% 0.3 mph E0.5 kmh E 0.3 mph0.5 kmh 29.77 in1008.1 mb 0.00 in0.0 mm 0.00 in0.0 mm 0.00 in0.0 mm
08:12 PM 25.8°F-3.4°C 8.7°F-12.9°C 48% Calm Calm 0.7 mph1.1 kmh 29.77 in1008.1 mb 0.00 in0.0 mm 0.00 in0.0 mm 0.00 in0.0 mm
08:07 PM 26.2°F-3.2°C 9.1°F-12.7°C 48% 0.3 mph NE0.5 kmh NE 0.7 mph1.1 kmh 29.76 in1007.8 mb 0.00 in0.0 mm 0.00 in0.0 mm 0.00 in0.0 mm
08:02 PM 26.4°F-3.1°C 9.2°F-12.7°C 48% 0.6 mph NE1.0 kmh NE 0.7 mph1.1 kmh 29.76 in1007.8 mb 0.00 in0.0 mm 0.00 in0.0 mm 0.00 in0.0 mm
07:57 PM 26.7°F-2.9°C 9.5°F-12.5°C 48% 0.3 mph ENE0.5 kmh ENE 3.5 mph5.6 kmh 29.76 in1007.8 mb 0.00 in0.0 mm 0.00 in0.0 mm 0.00 in0.0 mm
07:52 PM 26.9°F-2.8°C 9.2°F-12.7°C 47% 0.5 mph NE0.8 kmh NE 7.5 mph12.1 kmh 29.76 in1007.8 mb 0.00 in0.0 mm 0.00 in0.0 mm 0.00 in0.0 mm
07:47 PM 27.1°F-2.7°C 9.4°F-12.6°C 47% 3.4 mph NNE5.5 kmh NNE 7.5 mph12.1 kmh 29.76 in1007.8 mb 0.00 in0.0 mm 0.00 in0.0 mm 0.00 in0.0 mm
07:42 PM 27.3°F-2.6°C 9.1°F-12.7°C 46% 1.6 mph NNE2.6 kmh NNE 3.9 mph6.3 kmh 29.76 in1007.8 mb 0.00 in0.0 mm 0.00 in0.0 mm 0.00 in0.0 mm
07:37 PM 27.5°F-2.5°C 9.3°F-12.6°C 46% 0.9 mph NE1.4 kmh NE 1.9 mph3.1 kmh 29.76 in1007.8 mb 0.00 in0.0 mm 0.00 in0.0 mm 0.00 in0.0 mm
07:32 PM 27.9°F-2.3°C 9.2°F-12.7°C 45% 0.7 mph NE1.1 kmh NE 1.9 mph3.1 kmh 29.76 in1007.8 mb 0.00 in0.0 mm 0.00 in0.0 mm 0.00 in0.0 mm
07:27 PM 28.3°F-2.1°C 9.5°F-12.5°C 45% 0.4 mph N0.6 kmh N 6.0 mph9.7 kmh 29.76 in1007.8 mb 0.00 in0.0 mm 0.00 in0.0 mm 0.00 in0.0 mm
07:22 PM 28.4°F-2.0°C 9.1°F-12.7°C 44% 0.3 mph NNE0.5 kmh NNE 6.0 mph9.7 kmh 29.76 in1007.8 mb 0.00 in0.0 mm 0.00 in0.0 mm 0.00 in0.0 mm
07:17 PM 28.8°F-1.8°C 9.5°F-12.5°C 44% 0.7 mph N1.1 kmh N 6.3 mph10.1 kmh 29.76 in1007.8 mb 0.00 in0.0 mm 0.00 in0.0 mm 0.00 in0.0 mm
07:12 PM 29.2°F-1.6°C 9.3°F-12.6°C 43% 1.2 mph N1.9 kmh N 6.3 mph10.1 kmh 29.76 in1007.8 mb 0.00 in0.0 mm 0.00 in0.0 mm 0.00 in0.0 mm
07:07 PM 29.5°F-1.4°C 9.6°F-12.4°C 43% 3.5 mph NNW5.6 kmh NNW 6.7 mph10.8 kmh 29.76 in1007.8 mb 0.00 in0.0 mm 0.00 in0.0 mm 0.00 in0.0 mm
07:02 PM 29.7°F-1.3°C 9.7°F-12.4°C 43% 1.2 mph N1.9 kmh N 7.9 mph12.7 kmh 29.76 in1007.8 mb 0.00 in0.0 mm 0.00 in0.0 mm 0.00 in0.0 mm
06:57 PM 30.1°F-1.1°C 9.6°F-12.4°C 42% 0.8 mph 1.3 kmh 7.9 mph12.7 kmh 29.76 in1007.8 mb 0.00 in0.0 mm 0.00 in0.0 mm 0.00 in0.0 mm
06:52 PM 30.2°F-1.0°C 9.6°F-12.4°C 42% 1.1 mph N1.8 kmh N 11.0 mph17.7 kmh 29.76 in1007.8 mb 0.00 in0.0 mm 0.00 in0.0 mm 0.00 in0.0 mm
06:47 PM 30.6°F-0.8°C 9.4°F-12.6°C 41% 3.3 mph NNW5.3 kmh NNW 11.0 mph17.7 kmh 29.76 in1007.8 mb 0.00 in0.0 mm 0.00 in0.0 mm 0.00 in0.0 mm
06:42 PM 30.9°F-0.6°C 9.8°F-12.3°C 41% 3.1 mph NE5.0 kmh NE 9.4 mph15.1 kmh 29.76 in1007.8 mb 0.00 in0.0 mm 0.00 in0.0 mm 0.00 in0.0 mm
06:37 PM 31.0°F-0.6°C 9.9°F-12.3°C 41% 3.5 mph NNE5.6 kmh NNE 11.7 mph18.8 kmh 29.76 in1007.8 mb 0.00 in0.0 mm 0.00 in0.0 mm 0.00 in0.0 mm
06:32 PM 31.6°F-0.2°C 10.4°F-12.0°C 41% 5.6 mph N9.0 kmh N 14.2 mph22.9 kmh 29.76 in1007.8 mb 0.00 in0.0 mm 0.00 in0.0 mm 0.00 in0.0 mm
06:27 PM 32.1°F0.1°C 10.3°F-12.1°C 40% 6.9 mph N11.1 kmh N 14.2 mph22.9 kmh 29.75 in1007.5 mb 0.00 in0.0 mm 0.00 in0.0 mm 0.00 in0.0 mm
06:22 PM 32.5°F0.3°C 10.6°F-11.9°C 40% 4.8 mph N7.7 kmh N 8.2 mph13.2 kmh 29.75 in1007.5 mb 0.00 in0.0 mm 0.00 in0.0 mm 0.00 in0.0 mm
06:17 PM 32.8°F0.4°C 10.3°F-12.1°C 39% 3.2 mph N5.1 kmh N 11.0 mph17.7 kmh 29.76 in1007.8 mb 0.00 in0.0 mm 0.00 in0.0 mm 0.00 in0.0 mm
06:11 PM 33.2°F0.7°C 10.7°F-11.8°C 39% 6.1 mph 9.8 kmh 11.0 mph17.7 kmh 29.76 in1007.8 mb 0.00 in0.0 mm 0.00 in0.0 mm 0.00 in0.0 mm
06:07 PM 33.9°F1.1°C 10.7°F-11.8°C 38% 8.8 mph 14.2 kmh 11.0 mph17.7 kmh 29.75 in1007.5 mb 0.00 in0.0 mm 0.00 in0.0 mm 0.00 in0.0 mm
06:01 PM 34.2°F1.2°C 11.0°F-11.7°C 38% 7.5 mph NNW12.1 kmh NNW 16.1 mph25.9 kmh 29.75 in1007.5 mb 0.00 in0.0 mm 0.00 in0.0 mm 0.00 in0.0 mm
05:56 PM 34.7°F1.5°C 10.9°F-11.7°C 37% 5.4 mph N8.7 kmh N 16.1 mph25.9 kmh 29.75 in1007.5 mb 0.00 in0.0 mm 0.00 in0.0 mm 0.00 in0.0 mm
05:51 PM 35.8°F2.1°C 11.8°F-11.2°C 37% 9.4 mph NE15.1 kmh NE 21.5 mph34.6 kmh 29.75 in1007.5 mb 0.00 in0.0 mm 0.00 in0.0 mm 0.00 in0.0 mm
05:46 PM 36.7°F2.6°C 12.0°F-11.1°C 36% 2.7 mph N4.3 kmh N 21.5 mph34.6 kmh 29.75 in1007.5 mb 0.00 in0.0 mm 0.00 in0.0 mm 0.00 in0.0 mm
05:41 PM 38.0°F3.3°C 12.5°F-10.8°C 35% 16.7 mph N26.9 kmh N 21.5 mph34.6 kmh 29.75 in1007.5 mb 0.00 in0.0 mm 0.00 in0.0 mm 0.00 in0.0 mm
05:36 PM 38.8°F3.8°C 13.9°F-10.1°C 36% 4.7 mph NNW7.6 kmh NNW 17.1 mph27.5 kmh 29.75 in1007.5 mb 0.00 in0.0 mm 0.00 in0.0 mm 0.00 in0.0 mm
05:31 PM 39.5°F4.2°C 13.8°F-10.1°C 35% 11.4 mph NE18.3 kmh NE 17.1 mph27.5 kmh 29.75 in1007.5 mb 0.00 in0.0 mm 0.00 in0.0 mm 0.00 in0.0 mm
05:26 PM 39.8°F4.3°C 15.4°F-9.2°C 37% 3.9 mph NNE6.3 kmh NNE 8.6 mph13.8 kmh 29.75 in1007.5 mb 0.00 in0.0 mm 0.00 in0.0 mm 0.00 in0.0 mm
05:21 PM 39.5°F4.2°C 15.1°F-9.4°C 37% 1.7 mph NNW2.7 kmh NNW 13.3 mph21.4 kmh 29.75 in1007.5 mb 0.00 in0.0 mm 0.00 in0.0 mm 0.00 in0.0 mm
05:16 PM 39.3°F4.1°C 14.3°F-9.8°C 36% 6.4 mph N10.3 kmh N 13.3 mph21.4 kmh 29.75 in1007.5 mb 0.00 in0.0 mm 0.00 in0.0 mm 0.00 in0.0 mm
05:11 PM 39.5°F4.2°C 14.5°F-9.7°C 36% 6.0 mph NE9.7 kmh NE 14.9 mph24.0 kmh 29.75 in1007.5 mb 0.00 in0.0 mm 0.00 in0.0 mm 0.00 in0.0 mm
05:06 PM 39.7°F4.3°C 14.7°F-9.6°C 36% 6.4 mph NNE10.3 kmh NNE 14.9 mph24.0 kmh 29.75 in1007.5 mb 0.00 in0.0 mm 0.00 in0.0 mm 0.00 in0.0 mm
05:01 PM 40.0°F4.4°C 14.9°F-9.5°C 36% 5.9 mph NE9.5 kmh NE 12.1 mph19.5 kmh 29.75 in1007.5 mb 0.00 in0.0 mm 0.00 in0.0 mm 0.00 in0.0 mm
04:56 PM 39.5°F4.2°C 15.1°F-9.4°C 37% 3.3 mph NW5.3 kmh NW 17.7 mph28.5 kmh 29.75 in1007.5 mb 0.00 in0.0 mm 0.00 in0.0 mm 0.00 in0.0 mm
04:51 PM 39.7°F4.3°C 14.0°F-10.0°C 35% 9.4 mph NNW15.1 kmh NNW 17.7 mph28.5 kmh 29.74 in1007.1 mb 0.00 in0.0 mm 0.00 in0.0 mm 0.00 in0.0 mm
04:46 PM 40.0°F4.4°C 14.9°F-9.5°C 36% 7.8 mph N12.6 kmh N 15.2 mph24.5 kmh 29.75 in1007.5 mb 0.00 in0.0 mm 0.00 in0.0 mm 0.00 in0.0 mm
04:41 PM 40.2°F4.6°C 15.1°F-9.4°C 36% 7.7 mph N12.4 kmh N 15.2 mph24.5 kmh 29.75 in1007.5 mb 0.00 in0.0 mm 0.00 in0.0 mm 0.00 in0.0 mm
04:36 PM 40.2°F4.6°C 15.7°F-9.1°C 37% 6.5 mph N10.5 kmh N 15.2 mph24.5 kmh 29.75 in1007.5 mb 0.00 in0.0 mm 0.00 in0.0 mm 0.00 in0.0 mm
04:31 PM 39.8°F4.3°C 14.7°F-9.6°C 36% 6.2 mph N10.0 kmh N 14.9 mph24.0 kmh 29.75 in1007.5 mb 0.00 in0.0 mm 0.00 in0.0 mm 0.00 in0.0 mm
04:26 PM 40.0°F4.4°C 14.9°F-9.5°C 36% 6.2 mph NE10.0 kmh NE 19.3 mph31.1 kmh 29.75 in1007.5 mb 0.00 in0.0 mm 0.00 in0.0 mm 0.00 in0.0 mm
04:21 PM 40.2°F4.6°C 14.4°F-9.8°C 35% 9.2 mph NNW14.8 kmh NNW 19.3 mph31.1 kmh 29.75 in1007.5 mb 0.00 in0.0 mm 0.00 in0.0 mm 0.00 in0.0 mm
04:16 PM 40.6°F4.8°C 15.5°F-9.2°C 36% 6.0 mph NE9.7 kmh NE 13.7 mph22.0 kmh 29.75 in1007.5 mb 0.00 in0.0 mm 0.00 in0.0 mm 0.00 in0.0 mm
04:11 PM 40.5°F4.7°C 16.1°F-8.8°C 37% 8.4 mph NW13.5 kmh NW 12.1 mph19.5 kmh 29.75 in1007.5 mb 0.00 in0.0 mm 0.00 in0.0 mm 0.00 in0.0 mm
04:06 PM 40.8°F4.9°C 15.7°F-9.1°C 36% 3.6 mph N5.8 kmh N 11.4 mph18.3 kmh 29.75 in1007.5 mb 0.00 in0.0 mm 0.00 in0.0 mm 0.00 in0.0 mm
04:01 PM 41.7°F5.4°C 17.7°F-7.9°C 38% 6.0 mph NNW9.7 kmh NNW 11.4 mph18.3 kmh 29.75 in1007.5 mb 0.00 in0.0 mm 0.00 in0.0 mm 0.00 in0.0 mm
03:56 PM 41.5°F5.3°C 17.6°F-8.0°C 38% 3.4 mph NNW5.5 kmh NNW 8.2 mph13.2 kmh 29.75 in1007.5 mb 0.00 in0.0 mm 0.00 in0.0 mm 0.00 in0.0 mm
03:51 PM 40.5°F4.7°C 17.3°F-8.2°C 39% 1.5 mph NNW2.4 kmh NNW 14.5 mph23.3 kmh 29.75 in1007.5 mb 0.00 in0.0 mm 0.00 in0.0 mm 0.00 in0.0 mm
03:46 PM 39.8°F4.3°C 16.0°F-8.9°C 38% 5.2 mph NNW8.4 kmh NNW 19.3 mph31.1 kmh 29.75 in1007.5 mb 0.00 in0.0 mm 0.00 in0.0 mm 0.00 in0.0 mm
03:41 PM 40.0°F4.4°C 15.5°F-9.2°C 37% 5.1 mph NNE8.2 kmh NNE 19.3 mph31.1 kmh 29.75 in1007.5 mb 0.00 in0.0 mm 0.00 in0.0 mm 0.00 in0.0 mm
03:36 PM 40.2°F4.6°C 16.3°F-8.7°C 38% 7.8 mph NNE12.6 kmh NNE 19.3 mph31.1 kmh 29.75 in1007.5 mb 0.00 in0.0 mm 0.00 in0.0 mm 0.00 in0.0 mm
03:31 PM 40.2°F4.6°C 15.7°F-9.1°C 37% 8.3 mph NNE13.4 kmh NNE 23.4 mph37.7 kmh 29.74 in1007.1 mb 0.00 in0.0 mm 0.00 in0.0 mm 0.00 in0.0 mm
03:26 PM 40.8°F4.9°C 16.3°F-8.7°C 37% 13.8 mph 22.2 kmh 23.4 mph37.7 kmh 29.75 in1007.5 mb 0.00 in0.0 mm 0.00 in0.0 mm 0.00 in0.0 mm
03:21 PM 40.6°F4.8°C 17.4°F-8.1°C 39% 6.4 mph N10.3 kmh N 16.1 mph25.9 kmh 29.75 in1007.5 mb 0.00 in0.0 mm 0.00 in0.0 mm 0.00 in0.0 mm
03:16 PM 40.2°F4.6°C 17.6°F-8.0°C 40% 3.9 mph N6.3 kmh N 14.2 mph22.9 kmh 29.75 in1007.5 mb 0.00 in0.0 mm 0.00 in0.0 mm 0.00 in0.0 mm
03:11 PM 39.5°F4.2°C 16.3°F-8.7°C 39% 6.7 mph N10.8 kmh N 14.2 mph22.9 kmh 29.75 in1007.5 mb 0.00 in0.0 mm 0.00 in0.0 mm 0.00 in0.0 mm
03:06 PM 39.3°F4.1°C 15.6°F-9.1°C 38% 8.2 mph NNW13.2 kmh NNW 32.5 mph52.3 kmh 29.75 in1007.5 mb 0.00 in0.0 mm 0.00 in0.0 mm 0.00 in0.0 mm
03:01 PM 39.3°F4.1°C 15.6°F-9.1°C 38% 11.0 mph N17.7 kmh N 32.5 mph52.3 kmh 29.75 in1007.5 mb 0.00 in0.0 mm 0.00 in0.0 mm 0.00 in0.0 mm
02:56 PM 39.3°F4.1°C 16.8°F-8.4°C 40% 6.5 mph 10.5 kmh 19.9 mph32.0 kmh 29.75 in1007.5 mb 0.00 in0.0 mm 0.00 in0.0 mm 0.00 in0.0 mm
02:51 PM 38.9°F3.8°C 15.8°F-9.0°C 39% 10.3 mph NNW16.6 kmh NNW 19.9 mph32.0 kmh 29.75 in1007.5 mb 0.00 in0.0 mm 0.00 in0.0 mm 0.00 in0.0 mm
02:46 PM 38.8°F3.8°C 16.3°F-8.7°C 40% 16.0 mph 25.7 kmh 21.9 mph35.2 kmh 29.75 in1007.5 mb 0.00 in0.0 mm 0.00 in0.0 mm 0.00 in0.0 mm
02:41 PM 38.4°F3.6°C 15.4°F-9.2°C 39% 6.3 mph NW10.1 kmh NW 21.9 mph35.2 kmh 29.75 in1007.5 mb 0.00 in0.0 mm 0.00 in0.0 mm 0.00 in0.0 mm
02:36 PM 39.1°F3.9°C 16.6°F-8.6°C 40% 17.1 mph NNE27.5 kmh NNE 21.9 mph35.2 kmh 29.76 in1007.8 mb 0.00 in0.0 mm 0.00 in0.0 mm 0.00 in0.0 mm
02:31 PM 39.1°F3.9°C 17.7°F-7.9°C 42% 1.6 mph N2.6 kmh N 10.5 mph16.9 kmh 29.76 in1007.8 mb 0.00 in0.0 mm 0.00 in0.0 mm 0.00 in0.0 mm
02:26 PM 38.4°F3.6°C 16.6°F-8.6°C 41% 5.0 mph NNE8.0 kmh NNE 14.5 mph23.3 kmh 29.76 in1007.8 mb 0.00 in0.0 mm 0.00 in0.0 mm 0.00 in0.0 mm
02:21 PM 38.0°F3.3°C 15.6°F-9.1°C 40% 8.7 mph N14.0 kmh N 14.5 mph23.3 kmh 29.76 in1007.8 mb 0.00 in0.0 mm 0.00 in0.0 mm 0.00 in0.0 mm
02:16 PM 37.3°F2.9°C 15.0°F-9.4°C 40% 3.5 mph 5.6 kmh 13.3 mph21.4 kmh 29.76 in1007.8 mb 0.00 in0.0 mm 0.00 in0.0 mm 0.00 in0.0 mm
02:11 PM 37.3°F2.9°C 15.6°F-9.1°C 41% 8.5 mph NW13.7 kmh NW 21.5 mph34.6 kmh 29.76 in1007.8 mb 0.00 in0.0 mm 0.00 in0.0 mm 0.00 in0.0 mm
02:06 PM 37.7°F3.2°C 15.9°F-8.9°C 41% 10.6 mph N17.1 kmh N 21.5 mph34.6 kmh 29.76 in1007.8 mb 0.00 in0.0 mm 0.00 in0.0 mm 0.00 in0.0 mm
02:01 PM 37.9°F3.3°C 16.7°F-8.5°C 42% 7.0 mph NW11.3 kmh NW 17.1 mph27.5 kmh 29.77 in1008.1 mb 0.00 in0.0 mm 0.00 in0.0 mm 0.00 in0.0 mm
01:56 PM 37.3°F2.9°C 16.2°F-8.8°C 42% 11.8 mph 19.0 kmh 17.1 mph27.5 kmh 29.76 in1007.8 mb 0.00 in0.0 mm 0.00 in0.0 mm 0.00 in0.0 mm
01:51 PM 37.2°F2.9°C 16.0°F-8.9°C 42% 5.3 mph NE8.5 kmh NE 11.0 mph17.7 kmh 29.77 in1008.1 mb 0.00 in0.0 mm 0.00 in0.0 mm 0.00 in0.0 mm
01:46 PM 37.3°F2.9°C 16.2°F-8.8°C 42% 6.8 mph NNW10.9 kmh NNW 14.9 mph24.0 kmh 29.77 in1008.1 mb 0.00 in0.0 mm 0.00 in0.0 mm 0.00 in0.0 mm
01:41 PM 37.2°F2.9°C 16.5°F-8.6°C 43% 8.3 mph N13.4 kmh N 14.9 mph24.0 kmh 29.77 in1008.1 mb 0.00 in0.0 mm 0.00 in0.0 mm 0.00 in0.0 mm
01:36 PM 36.9°F2.7°C 16.8°F-8.4°C 44% 7.1 mph NNW11.4 kmh NNW 11.4 mph18.3 kmh 29.77 in1008.1 mb 0.00 in0.0 mm 0.00 in0.0 mm 0.00 in0.0 mm
01:31 PM 36.0°F2.2°C 16.6°F-8.6°C 45% 3.8 mph 6.1 kmh 9.4 mph15.1 kmh 29.78 in1008.5 mb 0.00 in0.0 mm 0.00 in0.0 mm 0.00 in0.0 mm
01:26 PM 35.6°F2.0°C 16.2°F-8.8°C 45% 6.6 mph N10.6 kmh N 11.0 mph17.7 kmh 29.77 in1008.1 mb 0.00 in0.0 mm 0.00 in0.0 mm 0.00 in0.0 mm
01:21 PM 35.3°F1.8°C 14.9°F-9.5°C 43% 6.5 mph NE10.5 kmh NE 18.4 mph29.6 kmh 29.78 in1008.5 mb 0.00 in0.0 mm 0.00 in0.0 mm 0.00 in0.0 mm
01:16 PM 35.3°F1.8°C 14.9°F-9.5°C 43% 12.5 mph N20.1 kmh N 26.6 mph42.8 kmh 29.78 in1008.5 mb 0.00 in0.0 mm 0.00 in0.0 mm 0.00 in0.0 mm
01:11 PM 35.4°F1.9°C 16.0°F-8.9°C 45% 7.9 mph NNW12.7 kmh NNW 26.6 mph42.8 kmh 29.78 in1008.5 mb 0.00 in0.0 mm 0.00 in0.0 mm 0.00 in0.0 mm
01:06 PM 35.6°F2.0°C 16.2°F-8.8°C 45% 8.3 mph NNW13.4 kmh NNW 16.1 mph25.9 kmh 29.79 in1008.8 mb 0.00 in0.0 mm 0.00 in0.0 mm 0.00 in0.0 mm
01:01 PM 35.3°F1.8°C 15.9°F-8.9°C 45% 3.9 mph N6.3 kmh N 15.2 mph24.5 kmh 29.79 in1008.8 mb 0.00 in0.0 mm 0.00 in0.0 mm 0.00 in0.0 mm
12:56 PM 34.7°F1.5°C 15.4°F-9.2°C 45% 7.7 mph NW12.4 kmh NW 21.9 mph35.2 kmh 29.79 in1008.8 mb 0.00 in0.0 mm 0.00 in0.0 mm 0.00 in0.0 mm
12:51 PM 34.4°F1.3°C 15.1°F-9.4°C 45% 14.4 mph N23.2 kmh N 21.9 mph35.2 kmh 29.78 in1008.5 mb 0.00 in0.0 mm 0.00 in0.0 mm 0.00 in0.0 mm
12:46 PM 34.4°F1.3°C 15.7°F-9.1°C 46% 6.9 mph WNW11.1 kmh WNW 12.9 mph20.8 kmh 29.78 in1008.5 mb 0.00 in0.0 mm 0.00 in0.0 mm 0.00 in0.0 mm
12:41 PM 34.0°F1.1°C 15.3°F-9.3°C 46% 8.1 mph N13.0 kmh N 12.9 mph20.8 kmh 29.78 in1008.5 mb 0.00 in0.0 mm 0.00 in0.0 mm 0.00 in0.0 mm
12:36 PM 33.9°F1.1°C 15.6°F-9.1°C 47% 6.5 mph NNW10.5 kmh NNW 17.7 mph28.5 kmh 29.78 in1008.5 mb 0.00 in0.0 mm 0.00 in0.0 mm 0.00 in0.0 mm
12:31 PM 33.6°F0.9°C 14.9°F-9.5°C 46% 10.7 mph NNE17.2 kmh NNE 18.7 mph30.1 kmh 29.79 in1008.8 mb 0.00 in0.0 mm 0.00 in0.0 mm 0.00 in0.0 mm
12:26 PM 33.2°F0.7°C 15.0°F-9.4°C 47% 11.7 mph NW18.8 kmh NW 23.1 mph37.2 kmh 29.78 in1008.5 mb 0.00 in0.0 mm 0.00 in0.0 mm 0.00 in0.0 mm
12:21 PM 32.7°F0.4°C 14.6°F-9.7°C 47% 9.1 mph N14.6 kmh N 23.1 mph37.2 kmh 29.79 in1008.8 mb 0.00 in0.0 mm 0.00 in0.0 mm 0.00 in0.0 mm
12:16 PM 33.0°F0.6°C 15.3°F-9.3°C 48% 6.2 mph NNW10.0 kmh NNW 12.9 mph20.8 kmh 29.79 in1008.8 mb 0.00 in0.0 mm 0.00 in0.0 mm 0.00 in0.0 mm
12:11 PM 32.5°F0.3°C 14.9°F-9.5°C 48% 4.8 mph NNW7.7 kmh NNW 16.1 mph25.9 kmh 29.79 in1008.8 mb 0.00 in0.0 mm 0.00 in0.0 mm 0.00 in0.0 mm
12:06 PM 32.5°F0.3°C 14.4°F-9.8°C 47% 7.7 mph NNW12.4 kmh NNW 18.7 mph30.1 kmh 29.79 in1008.8 mb 0.00 in0.0 mm 0.00 in0.0 mm 0.00 in0.0 mm
12:01 PM 33.4°F0.8°C 15.7°F-9.1°C 48% 7.1 mph NW11.4 kmh NW 18.7 mph30.1 kmh 29.79 in1008.8 mb 0.00 in0.0 mm 0.00 in0.0 mm 0.00 in0.0 mm
11:56 AM 33.0°F0.6°C 15.8°F-9.0°C 49% 4.7 mph NW7.6 kmh NW 22.4 mph36.0 kmh 29.79 in1008.8 mb 0.00 in0.0 mm 0.00 in0.0 mm 0.00 in0.0 mm
11:51 AM 32.3°F0.2°C 14.7°F-9.6°C 48% 11.5 mph N18.5 kmh N 22.4 mph36.0 kmh 29.79 in1008.8 mb 0.00 in0.0 mm 0.00 in0.0 mm 0.00 in0.0 mm
11:46 AM 32.1°F0.1°C 14.5°F-9.7°C 48% 9.2 mph N14.8 kmh N 20.8 mph33.5 kmh 29.79 in1008.8 mb 0.00 in0.0 mm 0.00 in0.0 mm 0.00 in0.0 mm
11:41 AM 31.2°F-0.4°C 14.2°F-9.9°C 49% 7.7 mph N12.4 kmh N 23.4 mph37.7 kmh 29.79 in1008.8 mb 0.00 in0.0 mm 0.00 in0.0 mm 0.00 in0.0 mm
11:35 AM 31.0°F-0.6°C 13.0°F-10.6°C 47% 8.4 mph N13.5 kmh N 23.4 mph37.7 kmh 29.79 in1008.8 mb 0.00 in0.0 mm 0.00 in0.0 mm 0.00 in0.0 mm
11:30 AM 31.0°F-0.6°C 13.0°F-10.6°C 47% 12.4 mph NE20.0 kmh NE 22.4 mph36.0 kmh 29.79 in1008.8 mb 0.00 in0.0 mm 0.00 in0.0 mm 0.00 in0.0 mm
11:26 AM 31.6°F-0.2°C 13.6°F-10.2°C 47% 14.9 mph N24.0 kmh N 22.4 mph36.0 kmh 29.79 in1008.8 mb 0.00 in0.0 mm 0.00 in0.0 mm 0.00 in0.0 mm
11:20 AM 31.8°F-0.1°C 13.8°F-10.1°C 47% 11.2 mph N18.0 kmh N 25.9 mph41.7 kmh 29.79 in1008.8 mb 0.00 in0.0 mm 0.00 in0.0 mm 0.00 in0.0 mm
11:15 AM 32.1°F0.1°C 14.0°F-10.0°C 47% 10.7 mph N17.2 kmh N 25.9 mph41.7 kmh 29.79 in1008.8 mb 0.00 in0.0 mm 0.00 in0.0 mm 0.00 in0.0 mm
11:10 AM 32.1°F0.1°C 14.0°F-10.0°C 47% 10.5 mph N16.9 kmh N 23.4 mph37.7 kmh 29.79 in1008.8 mb 0.00 in0.0 mm 0.00 in0.0 mm 0.00 in0.0 mm
11:05 AM 31.9°F-0.1°C 14.3°F-9.8°C 48% 8.1 mph N13.0 kmh N 22.8 mph36.7 kmh 29.79 in1008.8 mb 0.00 in0.0 mm 0.00 in0.0 mm 0.00 in0.0 mm
11:00 AM 31.4°F-0.3°C 13.9°F-10.1°C 48% 9.8 mph N15.8 kmh N 22.8 mph36.7 kmh 29.79 in1008.8 mb 0.00 in0.0 mm 0.00 in0.0 mm 0.00 in0.0 mm
10:55 AM 31.4°F-0.3°C 13.9°F-10.1°C 48% 9.7 mph N15.6 kmh N 23.1 mph37.2 kmh 29.79 in1008.8 mb 0.00 in0.0 mm 0.00 in0.0 mm 0.00 in0.0 mm
10:50 AM 31.0°F-0.6°C 13.5°F-10.3°C 48% 7.9 mph 12.7 kmh 23.1 mph37.2 kmh 29.79 in1008.8 mb 0.00 in0.0 mm 0.00 in0.0 mm 0.00 in0.0 mm
10:45 AM 31.2°F-0.4°C 13.2°F-10.4°C 47% 9.5 mph NE15.3 kmh NE 21.2 mph34.1 kmh 29.79 in1008.8 mb 0.00 in0.0 mm 0.00 in0.0 mm 0.00 in0.0 mm
10:40 AM 31.6°F-0.2°C 14.1°F-9.9°C 48% 10.5 mph NNE16.9 kmh NNE 21.2 mph34.1 kmh 29.79 in1008.8 mb 0.00 in0.0 mm 0.00 in0.0 mm 0.00 in0.0 mm
10:35 AM 30.9°F-0.6°C 13.0°F-10.6°C 47% 10.0 mph ENE16.1 kmh ENE 21.2 mph34.1 kmh 29.80 in1009.1 mb 0.00 in0.0 mm 0.00 in0.0 mm 0.00 in0.0 mm
10:30 AM 30.2°F-1.0°C 12.2°F-11.0°C 47% 11.6 mph NNE18.7 kmh NNE 21.2 mph34.1 kmh 29.80 in1009.1 mb 0.00 in0.0 mm 0.00 in0.0 mm 0.00 in0.0 mm
10:25 AM 30.4°F-0.9°C 12.4°F-10.9°C 47% 10.3 mph N16.6 kmh N 17.1 mph27.5 kmh 29.79 in1008.8 mb 0.00 in0.0 mm 0.00 in0.0 mm 0.00 in0.0 mm
10:20 AM 30.9°F-0.6°C 13.0°F-10.6°C 47% 12.3 mph NE19.8 kmh NE 32.0 mph51.5 kmh 29.80 in1009.1 mb 0.00 in0.0 mm 0.00 in0.0 mm 0.00 in0.0 mm
10:15 AM 30.1°F-1.1°C 12.6°F-10.8°C 48% 7.6 mph N12.2 kmh N 32.0 mph51.5 kmh 29.79 in1008.8 mb 0.00 in0.0 mm 0.00 in0.0 mm 0.00 in0.0 mm
10:10 AM 29.7°F-1.3°C 11.3°F-11.5°C 46% 12.1 mph NNE19.5 kmh NNE 28.2 mph45.4 kmh 29.79 in1008.8 mb 0.00 in0.0 mm 0.00 in0.0 mm 0.00 in0.0 mm
10:05 AM 30.6°F-0.8°C 12.1°F-11.1°C 46% 14.6 mph NE23.5 kmh NE 27.5 mph44.3 kmh 29.79 in1008.8 mb 0.00 in0.0 mm 0.00 in0.0 mm 0.00 in0.0 mm
10:00 AM 30.9°F-0.6°C 13.0°F-10.6°C 47% 10.7 mph N17.2 kmh N 27.5 mph44.3 kmh 29.79 in1008.8 mb 0.00 in0.0 mm 0.00 in0.0 mm 0.00 in0.0 mm
09:55 AM 30.7°F-0.7°C 12.8°F-10.7°C 47% 9.4 mph N15.1 kmh N 23.4 mph37.7 kmh 29.79 in1008.8 mb 0.00 in0.0 mm 0.00 in0.0 mm 0.00 in0.0 mm
09:50 AM 30.4°F-0.9°C 12.9°F-10.6°C 48% 7.8 mph N12.6 kmh N 23.4 mph37.7 kmh 29.79 in1008.8 mb 0.00 in0.0 mm 0.00 in0.0 mm 0.00 in0.0 mm
09:45 AM 30.2°F-1.0°C 12.7°F-10.7°C 48% 12.6 mph NNW20.3 kmh NNW 18.4 mph29.6 kmh 29.79 in1008.8 mb 0.00 in0.0 mm 0.00 in0.0 mm 0.00 in0.0 mm
09:40 AM 30.1°F-1.1°C 13.1°F-10.5°C 49% 9.8 mph NNW15.8 kmh NNW 25.4 mph40.9 kmh 29.79 in1008.8 mb 0.00 in0.0 mm 0.00 in0.0 mm 0.00 in0.0 mm
09:35 AM 29.7°F-1.3°C 12.8°F-10.7°C 49% 13.5 mph N21.7 kmh N 25.4 mph40.9 kmh 29.79 in1008.8 mb 0.00 in0.0 mm 0.00 in0.0 mm 0.00 in0.0 mm
09:30 AM 29.7°F-1.3°C 12.8°F-10.7°C 49% 11.4 mph NE18.3 kmh NE 23.4 mph37.7 kmh 29.79 in1008.8 mb 0.00 in0.0 mm 0.00 in0.0 mm 0.00 in0.0 mm
09:25 AM 29.7°F-1.3°C 13.2°F-10.4°C 50% 11.2 mph N18.0 kmh N 23.4 mph37.7 kmh 29.79 in1008.8 mb 0.00 in0.0 mm 0.00 in0.0 mm 0.00 in0.0 mm
09:20 AM 29.2°F-1.6°C 13.7°F-10.2°C 52% 7.8 mph N12.6 kmh N 17.7 mph28.5 kmh 29.79 in1008.8 mb 0.00 in0.0 mm 0.00 in0.0 mm 0.00 in0.0 mm
09:15 AM 29.0°F-1.7°C 13.5°F-10.3°C 52% 7.5 mph N12.1 kmh N 18.4 mph29.6 kmh 29.79 in1008.8 mb 0.00 in0.0 mm 0.00 in0.0 mm 0.00 in0.0 mm
09:10 AM 28.8°F-1.8°C 14.2°F-9.9°C 54% 10.4 mph N16.7 kmh N 18.4 mph29.6 kmh 29.79 in1008.8 mb 0.00 in0.0 mm 0.00 in0.0 mm 0.00 in0.0 mm
09:05 AM 27.9°F-2.3°C 14.7°F-9.6°C 57% 6.2 mph N10.0 kmh N 22.4 mph36.0 kmh 29.79 in1008.8 mb 0.00 in0.0 mm 0.00 in0.0 mm 0.00 in0.0 mm
09:00 AM 27.5°F-2.5°C 13.8°F-10.1°C 56% 10.3 mph N16.6 kmh N 22.4 mph36.0 kmh 29.79 in1008.8 mb 0.00 in0.0 mm 0.00 in0.0 mm 0.00 in0.0 mm
08:55 AM 27.5°F-2.5°C 14.3°F-9.8°C 57% 11.4 mph NNW18.3 kmh NNW 21.5 mph34.6 kmh 29.79 in1008.8 mb 0.00 in0.0 mm 0.00 in0.0 mm 0.00 in0.0 mm
08:50 AM 27.5°F-2.5°C 15.8°F-9.0°C 61% 5.1 mph N8.2 kmh N 19.3 mph31.1 kmh 29.79 in1008.8 mb 0.00 in0.0 mm 0.00 in0.0 mm 0.00 in0.0 mm
08:45 AM 25.7°F-3.5°C 14.5°F-9.7°C 62% 7.6 mph N12.2 kmh N 19.3 mph31.1 kmh 29.79 in1008.8 mb 0.00 in0.0 mm 0.00 in0.0 mm 0.00 in0.0 mm
08:40 AM 23.6°F-4.7°C 13.2°F-10.4°C 64% 7.9 mph NNW12.7 kmh NNW 19.9 mph32.0 kmh 29.79 in1008.8 mb 0.00 in0.0 mm 0.00 in0.0 mm 0.00 in0.0 mm
08:35 AM 21.6°F-5.8°C 11.4°F-11.4°C 64% 11.0 mph NE17.7 kmh NE 24.3 mph39.1 kmh 29.79 in1008.8 mb 0.00 in0.0 mm 0.00 in0.0 mm 0.00 in0.0 mm
08:30 AM 19.9°F-6.7°C 10.1°F-12.2°C 65% 11.5 mph NE18.5 kmh NE 24.3 mph39.1 kmh 29.79 in1008.8 mb 0.00 in0.0 mm 0.00 in0.0 mm 0.00 in0.0 mm
08:25 AM 19.7°F-6.8°C 9.9°F-12.3°C 65% 8.1 mph N13.0 kmh N 18.7 mph30.1 kmh 29.79 in1008.8 mb 0.00 in0.0 mm 0.00 in0.0 mm 0.00 in0.0 mm
08:20 AM 19.6°F-6.9°C 10.5°F-11.9°C 67% 11.2 mph NNE18.0 kmh NNE 18.7 mph30.1 kmh 29.78 in1008.5 mb 0.00 in0.0 mm 0.00 in0.0 mm 0.00 in0.0 mm
08:15 AM 19.4°F-7.0°C 10.3°F-12.1°C 67% 7.8 mph N12.6 kmh N 17.1 mph27.5 kmh 29.79 in1008.8 mb 0.00 in0.0 mm 0.00 in0.0 mm 0.00 in0.0 mm
08:10 AM 19.2°F-7.1°C 10.4°F-12.0°C 68% 8.0 mph N12.9 kmh N 24.3 mph39.1 kmh 29.79 in1008.8 mb 0.00 in0.0 mm 0.00 in0.0 mm 0.00 in0.0 mm
08:05 AM 19.2°F-7.1°C 10.8°F-11.8°C 69% 14.2 mph NNE22.9 kmh NNE 24.3 mph39.1 kmh 29.78 in1008.5 mb 0.00 in0.0 mm 0.00 in0.0 mm 0.00 in0.0 mm
08:00 AM 18.8°F-7.3°C 10.4°F-12.0°C 69% 8.9 mph NNE14.3 kmh NNE 16.8 mph27.0 kmh 29.78 in1008.5 mb 0.00 in0.0 mm 0.00 in0.0 mm 0.00 in0.0 mm
07:55 AM 18.8°F-7.3°C 10.7°F-11.8°C 70% 5.6 mph NNE9.0 kmh NNE 20.8 mph33.5 kmh 29.78 in1008.5 mb 0.00 in0.0 mm 0.00 in0.0 mm 0.00 in0.0 mm
07:50 AM 18.7°F-7.4°C 10.6°F-11.9°C 70% 7.8 mph N12.6 kmh N 20.8 mph33.5 kmh 29.78 in1008.5 mb 0.00 in0.0 mm 0.00 in0.0 mm 0.00 in0.0 mm
07:45 AM 18.5°F-7.5°C 10.4°F-12.0°C 70% 11.0 mph N17.7 kmh N 19.9 mph32.0 kmh 29.78 in1008.5 mb 0.00 in0.0 mm 0.00 in0.0 mm 0.00 in0.0 mm
07:40 AM 18.5°F-7.5°C 10.7°F-11.8°C 71% 8.6 mph NNW13.8 kmh NNW 19.9 mph32.0 kmh 29.78 in1008.5 mb 0.00 in0.0 mm 0.00 in0.0 mm 0.00 in0.0 mm
07:35 AM 18.3°F-7.6°C 10.9°F-11.7°C 72% 6.9 mph NNE11.1 kmh NNE 19.9 mph32.0 kmh 29.78 in1008.5 mb 0.00 in0.0 mm 0.00 in0.0 mm 0.00 in0.0 mm
07:30 AM 18.1°F-7.7°C 10.7°F-11.8°C 72% 7.8 mph N12.6 kmh N 16.1 mph25.9 kmh 29.77 in1008.1 mb 0.00 in0.0 mm 0.00 in0.0 mm 0.00 in0.0 mm
07:25 AM 17.9°F-7.8°C 10.5°F-11.9°C 72% 6.9 mph NNE11.1 kmh NNE 13.3 mph21.4 kmh 29.77 in1008.1 mb 0.00 in0.0 mm 0.00 in0.0 mm 0.00 in0.0 mm
07:20 AM 17.8°F-7.9°C 10.4°F-12.0°C 72% 4.0 mph N6.4 kmh N 12.1 mph19.5 kmh 29.77 in1008.1 mb 0.00 in0.0 mm 0.00 in0.0 mm 0.00 in0.0 mm
07:15 AM 17.8°F-7.9°C 10.4°F-12.0°C 72% 5.9 mph NNE9.5 kmh NNE 12.1 mph19.5 kmh 29.77 in1008.1 mb 0.00 in0.0 mm 0.00 in0.0 mm 0.00 in0.0 mm
07:10 AM 17.8°F-7.9°C 10.4°F-12.0°C 72% 4.3 mph NNW6.9 kmh NNW 9.4 mph15.1 kmh 29.77 in1008.1 mb 0.00 in0.0 mm 0.00 in0.0 mm 0.00 in0.0 mm
07:05 AM 17.8°F-7.9°C 10.4°F-12.0°C 72% 4.8 mph NNW7.7 kmh NNW 11.0 mph17.7 kmh 29.76 in1007.8 mb 0.00 in0.0 mm 0.00 in0.0 mm 0.00 in0.0 mm
07:00 AM 17.9°F-7.8°C 10.8°F-11.8°C 73% 4.4 mph N7.1 kmh N 14.5 mph23.3 kmh 29.76 in1007.8 mb 0.00 in0.0 mm 0.00 in0.0 mm 0.00 in0.0 mm
06:55 AM 17.9°F-7.8°C 11.1°F-11.6°C 74% 5.7 mph NNW9.2 kmh NNW 14.5 mph23.3 kmh 29.76 in1007.8 mb 0.00 in0.0 mm 0.00 in0.0 mm 0.00 in0.0 mm
06:50 AM 17.9°F-7.8°C 10.8°F-11.8°C 73% 4.8 mph N7.7 kmh N 9.8 mph15.8 kmh 29.76 in1007.8 mb 0.00 in0.0 mm 0.00 in0.0 mm 0.00 in0.0 mm
06:45 AM 18.1°F-7.7°C 11.0°F-11.7°C 73% 6.5 mph 10.5 kmh 12.1 mph19.5 kmh 29.76 in1007.8 mb 0.00 in0.0 mm 0.00 in0.0 mm 0.00 in0.0 mm
06:40 AM 18.1°F-7.7°C 11.0°F-11.7°C 73% 4.6 mph NNW7.4 kmh NNW 12.1 mph19.5 kmh 29.76 in1007.8 mb 0.00 in0.0 mm 0.00 in0.0 mm 0.00 in0.0 mm
06:35 AM 18.1°F-7.7°C 10.7°F-11.8°C 72% 4.8 mph N7.7 kmh N 11.7 mph18.8 kmh 29.76 in1007.8 mb 0.00 in0.0 mm 0.00 in0.0 mm 0.00 in0.0 mm
06:30 AM 18.3°F-7.6°C 10.9°F-11.7°C 72% 5.6 mph NNW9.0 kmh NNW 11.7 mph18.8 kmh 29.75 in1007.5 mb 0.00 in0.0 mm 0.00 in0.0 mm 0.00 in0.0 mm
06:25 AM 18.5°F-7.5°C 11.0°F-11.7°C 72% 6.1 mph N9.8 kmh N 11.4 mph18.3 kmh 29.75 in1007.5 mb 0.00 in0.0 mm 0.00 in0.0 mm 0.00 in0.0 mm
06:20 AM 18.5°F-7.5°C 10.7°F-11.8°C 71% 5.4 mph NNW8.7 kmh NNW 12.1 mph19.5 kmh 29.75 in1007.5 mb 0.00 in0.0 mm 0.00 in0.0 mm 0.00 in0.0 mm
06:15 AM 18.7°F-7.4°C 10.9°F-11.7°C 71% 4.2 mph N6.8 kmh N 18.7 mph30.1 kmh 29.75 in1007.5 mb 0.00 in0.0 mm 0.00 in0.0 mm 0.00 in0.0 mm
06:10 AM 18.7°F-7.4°C 10.6°F-11.9°C 70% 8.3 mph N13.4 kmh N 18.7 mph30.1 kmh 29.75 in1007.5 mb 0.00 in0.0 mm 0.00 in0.0 mm 0.00 in0.0 mm
06:05 AM 18.8°F-7.3°C 10.7°F-11.8°C 70% 7.8 mph NNW12.6 kmh NNW 16.1 mph25.9 kmh 29.75 in1007.5 mb 0.00 in0.0 mm 0.00 in0.0 mm 0.00 in0.0 mm
06:00 AM 19.0°F-7.2°C 10.6°F-11.9°C 69% 4.9 mph NNW7.9 kmh NNW 16.1 mph25.9 kmh 29.74 in1007.1 mb 0.00 in0.0 mm 0.00 in0.0 mm 0.00 in0.0 mm
05:55 AM 19.2°F-7.1°C 10.8°F-11.8°C 69% 6.7 mph NNE10.8 kmh NNE 9.8 mph15.8 kmh 29.74 in1007.1 mb 0.00 in0.0 mm 0.00 in0.0 mm 0.00 in0.0 mm
05:50 AM 19.2°F-7.1°C 10.8°F-11.8°C 69% 4.5 mph N7.2 kmh N 14.5 mph23.3 kmh 29.74 in1007.1 mb 0.00 in0.0 mm 0.00 in0.0 mm 0.00 in0.0 mm
05:45 AM 19.4°F-7.0°C 10.6°F-11.9°C 68% 6.3 mph N10.1 kmh N 17.1 mph27.5 kmh 29.74 in1007.1 mb 0.00 in0.0 mm 0.00 in0.0 mm 0.00 in0.0 mm
05:40 AM 19.6°F-6.9°C 10.5°F-11.9°C 67% 6.8 mph NNW10.9 kmh NNW 18.4 mph29.6 kmh 29.74 in1007.1 mb 0.00 in0.0 mm 0.00 in0.0 mm 0.00 in0.0 mm
05:35 AM 19.7°F-6.8°C 10.6°F-11.9°C 67% 6.0 mph NNW9.7 kmh NNW 18.4 mph29.6 kmh 29.74 in1007.1 mb 0.00 in0.0 mm 0.00 in0.0 mm 0.00 in0.0 mm
05:30 AM 19.9°F-6.7°C 10.4°F-12.0°C 66% 6.1 mph N9.8 kmh N 14.9 mph24.0 kmh 29.73 in1006.8 mb 0.00 in0.0 mm 0.00 in0.0 mm 0.00 in0.0 mm
05:25 AM 19.9°F-6.7°C 10.4°F-12.0°C 66% 9.4 mph N15.1 kmh N 18.4 mph29.6 kmh 29.73 in1006.8 mb 0.00 in0.0 mm 0.00 in0.0 mm 0.00 in0.0 mm
05:20 AM 20.3°F-6.5°C 10.8°F-11.8°C 66% 4.6 mph N7.4 kmh N 23.1 mph37.2 kmh 29.73 in1006.8 mb 0.00 in0.0 mm 0.00 in0.0 mm 0.00 in0.0 mm
05:15 AM 20.3°F-6.5°C 10.8°F-11.8°C 66% 10.9 mph NNE17.5 kmh NNE 23.1 mph37.2 kmh 29.73 in1006.8 mb 0.00 in0.0 mm 0.00 in0.0 mm 0.00 in0.0 mm
05:10 AM 20.5°F-6.4°C 11.0°F-11.7°C 66% 6.6 mph NNW10.6 kmh NNW 16.1 mph25.9 kmh 29.73 in1006.8 mb 0.00 in0.0 mm 0.00 in0.0 mm 0.00 in0.0 mm
05:05 AM 20.6°F-6.3°C 11.1°F-11.6°C 66% 6.2 mph N10.0 kmh N 12.1 mph19.5 kmh 29.72 in1006.4 mb 0.00 in0.0 mm 0.00 in0.0 mm 0.00 in0.0 mm
05:00 AM 20.6°F-6.3°C 11.1°F-11.6°C 66% 7.3 mph N11.7 kmh N 12.1 mph19.5 kmh 29.72 in1006.4 mb 0.00 in0.0 mm 0.00 in0.0 mm 0.00 in0.0 mm
04:55 AM 20.8°F-6.2°C 11.6°F-11.3°C 67% 3.4 mph NNW5.5 kmh NNW 8.2 mph13.2 kmh 29.72 in1006.4 mb 0.00 in0.0 mm 0.00 in0.0 mm 0.00 in0.0 mm
04:50 AM 21.0°F-6.1°C 11.8°F-11.2°C 67% 5.6 mph NNW9.0 kmh NNW 11.0 mph17.7 kmh 29.72 in1006.4 mb 0.00 in0.0 mm 0.00 in0.0 mm 0.00 in0.0 mm
04:45 AM 21.0°F-6.1°C 12.1°F-11.1°C 68% 5.7 mph N9.2 kmh N 11.0 mph17.7 kmh 29.72 in1006.4 mb 0.00 in0.0 mm 0.00 in0.0 mm 0.00 in0.0 mm
04:40 AM 21.1°F-6.1°C 12.3°F-10.9°C 68% 5.4 mph NNW8.7 kmh NNW 10.5 mph16.9 kmh 29.71 in1006.1 mb 0.00 in0.0 mm 0.00 in0.0 mm 0.00 in0.0 mm
04:35 AM 21.3°F-5.9°C 12.8°F-10.7°C 69% 5.1 mph N8.2 kmh N 11.4 mph18.3 kmh 29.72 in1006.4 mb 0.00 in0.0 mm 0.00 in0.0 mm 0.00 in0.0 mm
04:30 AM 21.4°F-5.9°C 12.9°F-10.6°C 69% 4.0 mph NW6.4 kmh NW 11.4 mph18.3 kmh 29.71 in1006.1 mb 0.00 in0.0 mm 0.00 in0.0 mm 0.00 in0.0 mm
04:25 AM 21.6°F-5.8°C 13.1°F-10.5°C 69% 3.4 mph NNW5.5 kmh NNW 7.9 mph12.7 kmh 29.71 in1006.1 mb 0.00 in0.0 mm 0.00 in0.0 mm 0.00 in0.0 mm
04:20 AM 21.8°F-5.7°C 13.6°F-10.2°C 70% 4.1 mph NNW6.6 kmh NNW 7.0 mph11.3 kmh 29.71 in1006.1 mb 0.00 in0.0 mm 0.00 in0.0 mm 0.00 in0.0 mm
04:15 AM 22.0°F-5.6°C 14.1°F-9.9°C 71% 3.2 mph N5.1 kmh N 8.2 mph13.2 kmh 29.71 in1006.1 mb 0.00 in0.0 mm 0.00 in0.0 mm 0.00 in0.0 mm
04:10 AM 22.2°F-5.4°C 14.3°F-9.8°C 71% 2.1 mph NNW3.4 kmh NNW 12.1 mph19.5 kmh 29.71 in1006.1 mb 0.00 in0.0 mm 0.00 in0.0 mm 0.00 in0.0 mm
04:05 AM 22.3°F-5.4°C 14.7°F-9.6°C 72% 2.7 mph N4.3 kmh N 12.1 mph19.5 kmh 29.71 in1006.1 mb 0.00 in0.0 mm 0.00 in0.0 mm 0.00 in0.0 mm
04:00 AM 22.5°F-5.3°C 14.9°F-9.5°C 72% 3.6 mph NW5.8 kmh NW 14.2 mph22.9 kmh 29.71 in1006.1 mb 0.00 in0.0 mm 0.00 in0.0 mm 0.00 in0.0 mm
03:55 AM 22.7°F-5.2°C 15.1°F-9.4°C 72% 8.4 mph N13.5 kmh N 15.2 mph24.5 kmh 29.71 in1006.1 mb 0.00 in0.0 mm 0.00 in0.0 mm 0.00 in0.0 mm
03:50 AM 22.7°F-5.2°C 15.1°F-9.4°C 72% 9.6 mph NNW15.4 kmh NNW 16.4 mph26.4 kmh 29.71 in1006.1 mb 0.00 in0.0 mm 0.00 in0.0 mm 0.00 in0.0 mm
03:45 AM 22.9°F-5.1°C 15.3°F-9.3°C 72% 6.7 mph NNW10.8 kmh NNW 16.4 mph26.4 kmh 29.71 in1006.1 mb 0.00 in0.0 mm 0.00 in0.0 mm 0.00 in0.0 mm
03:40 AM 22.9°F-5.1°C 15.3°F-9.3°C 72% 4.3 mph NNW6.9 kmh NNW 13.7 mph22.0 kmh 29.71 in1006.1 mb 0.00 in0.0 mm 0.00 in0.0 mm 0.00 in0.0 mm
03:35 AM 23.1°F-4.9°C 15.4°F-9.2°C 72% 6.8 mph N10.9 kmh N 11.7 mph18.8 kmh 29.71 in1006.1 mb 0.00 in0.0 mm 0.00 in0.0 mm 0.00 in0.0 mm
03:30 AM 23.1°F-4.9°C 15.4°F-9.2°C 72% 5.8 mph N9.3 kmh N 11.7 mph18.8 kmh 29.71 in1006.1 mb 0.00 in0.0 mm 0.00 in0.0 mm 0.00 in0.0 mm
03:25 AM 23.2°F-4.9°C 15.5°F-9.2°C 72% 5.0 mph N8.0 kmh N 9.4 mph15.1 kmh 29.71 in1006.1 mb 0.00 in0.0 mm 0.00 in0.0 mm 0.00 in0.0 mm
03:20 AM 23.4°F-4.8°C 15.7°F-9.1°C 72% 2.1 mph NNW3.4 kmh NNW 8.2 mph13.2 kmh 29.70 in1005.8 mb 0.00 in0.0 mm 0.00 in0.0 mm 0.00 in0.0 mm
03:15 AM 23.4°F-4.8°C 15.7°F-9.1°C 72% 0.9 mph N1.4 kmh N 7.0 mph11.3 kmh 29.70 in1005.8 mb 0.00 in0.0 mm 0.00 in0.0 mm 0.00 in0.0 mm
03:09 AM 23.6°F-4.7°C 15.6°F-9.1°C 71% 2.5 mph NNW4.0 kmh NNW 8.2 mph13.2 kmh 29.70 in1005.8 mb 0.00 in0.0 mm 0.00 in0.0 mm 0.00 in0.0 mm
03:05 AM 23.8°F-4.6°C 15.8°F-9.0°C 71% 5.6 mph N9.0 kmh N 10.5 mph16.9 kmh 29.70 in1005.8 mb 0.00 in0.0 mm 0.00 in0.0 mm 0.00 in0.0 mm
03:00 AM 24.0°F-4.4°C 16.0°F-8.9°C 71% 4.3 mph N6.9 kmh N 10.5 mph16.9 kmh 29.71 in1006.1 mb 0.00 in0.0 mm 0.00 in0.0 mm 0.00 in0.0 mm
02:55 AM 24.1°F-4.4°C 16.1°F-8.8°C 71% 1.5 mph NNW2.4 kmh NNW 8.6 mph13.8 kmh 29.71 in1006.1 mb 0.00 in0.0 mm 0.00 in0.0 mm 0.00 in0.0 mm
02:49 AM 24.1°F-4.4°C 16.1°F-8.8°C 71% 2.8 mph N4.5 kmh N 8.6 mph13.8 kmh 29.71 in1006.1 mb 0.00 in0.0 mm 0.00 in0.0 mm 0.00 in0.0 mm
02:45 AM 24.3°F-4.3°C 16.2°F-8.8°C 71% 3.1 mph N5.0 kmh N 8.6 mph13.8 kmh 29.71 in1006.1 mb 0.00 in0.0 mm 0.00 in0.0 mm 0.00 in0.0 mm
02:40 AM 24.4°F-4.2°C 16.4°F-8.7°C 71% 0.9 mph NW1.4 kmh NW 8.6 mph13.8 kmh 29.71 in1006.1 mb 0.00 in0.0 mm 0.00 in0.0 mm 0.00 in0.0 mm
02:34 AM 24.6°F-4.1°C 16.6°F-8.6°C 71% 3.5 mph N5.6 kmh N 14.2 mph22.9 kmh 29.71 in1006.1 mb 0.00 in0.0 mm 0.00 in0.0 mm 0.00 in0.0 mm
02:29 AM 24.8°F-4.0°C 16.8°F-8.4°C 71% 3.9 mph N6.3 kmh N 14.2 mph22.9 kmh 29.71 in1006.1 mb 0.00 in0.0 mm 0.00 in0.0 mm 0.00 in0.0 mm
02:24 AM 24.9°F-3.9°C 16.9°F-8.4°C 71% 3.1 mph N5.0 kmh N 11.0 mph17.7 kmh 29.71 in1006.1 mb 0.00 in0.0 mm 0.00 in0.0 mm 0.00 in0.0 mm
02:19 AM 25.1°F-3.8°C 17.1°F-8.3°C 71% 3.6 mph N5.8 kmh N 11.0 mph17.7 kmh 29.71 in1006.1 mb 0.00 in0.0 mm 0.00 in0.0 mm 0.00 in0.0 mm
02:14 AM 25.1°F-3.8°C 17.1°F-8.3°C 71% 2.1 mph NNW3.4 kmh NNW 11.0 mph17.7 kmh 29.71 in1006.1 mb 0.00 in0.0 mm 0.00 in0.0 mm 0.00 in0.0 mm
02:09 AM 25.3°F-3.7°C 17.3°F-8.2°C 71% 3.7 mph NNW6.0 kmh NNW 11.0 mph17.7 kmh 29.71 in1006.1 mb 0.00 in0.0 mm 0.00 in0.0 mm 0.00 in0.0 mm
02:04 AM 25.5°F-3.6°C 17.5°F-8.1°C 71% 3.3 mph N5.3 kmh N 11.0 mph17.7 kmh 29.70 in1005.8 mb 0.00 in0.0 mm 0.00 in0.0 mm 0.00 in0.0 mm
01:59 AM 25.7°F-3.5°C 17.7°F-7.9°C 71% 1.9 mph N3.1 kmh N 12.9 mph20.8 kmh 29.70 in1005.8 mb 0.00 in0.0 mm 0.00 in0.0 mm 0.00 in0.0 mm
01:54 AM 25.8°F-3.4°C 17.7°F-7.9°C 71% 4.8 mph NNW7.7 kmh NNW 12.9 mph20.8 kmh 29.70 in1005.8 mb 0.00 in0.0 mm 0.00 in0.0 mm 0.00 in0.0 mm
01:49 AM 26.2°F-3.2°C 18.1°F-7.7°C 71% 3.0 mph NNW4.8 kmh NNW 8.2 mph13.2 kmh 29.70 in1005.8 mb 0.00 in0.0 mm 0.00 in0.0 mm 0.00 in0.0 mm
01:44 AM 26.2°F-3.2°C 18.1°F-7.7°C 71% 1.9 mph NNW3.1 kmh NNW 8.2 mph13.2 kmh 29.70 in1005.8 mb 0.00 in0.0 mm 0.00 in0.0 mm 0.00 in0.0 mm
01:39 AM 26.6°F-3.0°C 18.5°F-7.5°C 71% 4.7 mph 7.6 kmh 7.9 mph12.7 kmh 29.70 in1005.8 mb 0.00 in0.0 mm 0.00 in0.0 mm 0.00 in0.0 mm
01:34 AM 26.9°F-2.8°C 18.8°F-7.3°C 71% 3.2 mph NW5.1 kmh NW 6.7 mph10.8 kmh 29.70 in1005.8 mb 0.00 in0.0 mm 0.00 in0.0 mm 0.00 in0.0 mm
01:29 AM 27.1°F-2.7°C 18.6°F-7.4°C 70% 1.6 mph NNW2.6 kmh NNW 7.9 mph12.7 kmh 29.71 in1006.1 mb 0.00 in0.0 mm 0.00 in0.0 mm 0.00 in0.0 mm
01:24 AM 27.5°F-2.5°C 19.0°F-7.2°C 70% 1.7 mph N2.7 kmh N 9.4 mph15.1 kmh 29.70 in1005.8 mb 0.00 in0.0 mm 0.00 in0.0 mm 0.00 in0.0 mm
01:19 AM 27.5°F-2.5°C 19.1°F-7.2°C 70% 3.1 mph NNW5.0 kmh NNW 13.7 mph22.0 kmh 29.70 in1005.8 mb 0.00 in0.0 mm 0.00 in0.0 mm 0.00 in0.0 mm
01:14 AM 27.9°F-2.3°C 19.5°F-6.9°C 70% 5.0 mph 8.0 kmh 16.4 mph26.4 kmh 29.70 in1005.8 mb 0.00 in0.0 mm 0.00 in0.0 mm 0.00 in0.0 mm
01:09 AM 28.1°F-2.2°C 20.0°F-6.7°C 71% 3.1 mph NNW5.0 kmh NNW 16.4 mph26.4 kmh 29.70 in1005.8 mb 0.00 in0.0 mm 0.00 in0.0 mm 0.00 in0.0 mm
01:04 AM 28.1°F-2.2°C 20.0°F-6.7°C 71% 1.8 mph N2.9 kmh N 12.1 mph19.5 kmh 29.70 in1005.8 mb 0.00 in0.0 mm 0.00 in0.0 mm 0.00 in0.0 mm
12:59 AM 28.1°F-2.2°C 20.3°F-6.5°C 72% 3.4 mph NNW5.5 kmh NNW 8.6 mph13.8 kmh 29.70 in1005.8 mb 0.00 in0.0 mm 0.00 in0.0 mm 0.00 in0.0 mm
12:54 AM 28.3°F-2.1°C 20.8°F-6.2°C 73% 1.3 mph N2.1 kmh N 9.4 mph15.1 kmh 29.70 in1005.8 mb 0.00 in0.0 mm 0.00 in0.0 mm 0.00 in0.0 mm
12:49 AM 28.3°F-2.1°C 20.8°F-6.2°C 73% 2.3 mph N3.7 kmh N 9.4 mph15.1 kmh 29.70 in1005.8 mb 0.00 in0.0 mm 0.00 in0.0 mm 0.00 in0.0 mm
12:44 AM 28.3°F-2.1°C 20.8°F-6.2°C 73% 4.0 mph NNE6.4 kmh NNE 9.4 mph15.1 kmh 29.70 in1005.8 mb 0.00 in0.0 mm 0.00 in0.0 mm 0.00 in0.0 mm
12:39 AM 28.3°F-2.1°C 20.8°F-6.2°C 73% 4.2 mph N6.8 kmh N 13.3 mph21.4 kmh 29.71 in1006.1 mb 0.00 in0.0 mm 0.00 in0.0 mm 0.00 in0.0 mm
12:34 AM 28.4°F-2.0°C 20.6°F-6.3°C 72% 7.2 mph NNE11.6 kmh NNE 13.3 mph21.4 kmh 29.71 in1006.1 mb 0.00 in0.0 mm 0.00 in0.0 mm 0.00 in0.0 mm
12:29 AM 28.4°F-2.0°C 20.6°F-6.3°C 72% 4.7 mph NNW7.6 kmh NNW 11.0 mph17.7 kmh 29.71 in1006.1 mb 0.00 in0.0 mm 0.00 in0.0 mm 0.00 in0.0 mm
12:24 AM 28.6°F-1.9°C 20.5°F-6.4°C 71% 2.3 mph NNW3.7 kmh NNW 11.0 mph17.7 kmh 29.71 in1006.1 mb 0.00 in0.0 mm 0.00 in0.0 mm 0.00 in0.0 mm
12:19 AM 28.6°F-1.9°C 20.5°F-6.4°C 71% 5.9 mph N9.5 kmh N 11.0 mph17.7 kmh 29.71 in1006.1 mb 0.00 in0.0 mm 0.00 in0.0 mm 0.00 in0.0 mm
12:14 AM 28.8°F-1.8°C 20.3°F-6.5°C 70% 4.5 mph NNE7.2 kmh NNE 11.0 mph17.7 kmh 29.71 in1006.1 mb 0.00 in0.0 mm 0.00 in0.0 mm 0.00 in0.0 mm
12:09 AM 28.8°F-1.8°C 20.3°F-6.5°C 70% 5.7 mph N9.2 kmh N 11.0 mph17.7 kmh 29.71 in1006.1 mb 0.00 in0.0 mm 0.00 in0.0 mm 0.00 in0.0 mm
12:04 AM 29.0°F-1.7°C 20.5°F-6.4°C 70% 5.5 mph N8.9 kmh N 11.0 mph17.7 kmh 29.71 in1006.1 mb 0.00 in0.0 mm 0.00 in0.0 mm 0.00 in0.0 mm